Time;durP1;ratioP1;P1;durP2;ratioP2;P2;SDS_P1;SDS_P2;PMS_P1;PMS_P2;Temp;Humidity;BMP_temperature;BMP_pressure;BME280_temperature;BME280_humidity;BME280_pressure;Samples;Min_cycle;Max_cycle;Signal;HPM_P1;HPM_P2
2023/12/07 00:01:00;;;;;;;21.50;15.63;;;2.80;99.90;;;;;;4978006;28;20565;-85
2023/12/07 00:03:25;;;;;;;18.77;13.80;;;2.80;99.90;;;;;;4975068;28;20046;-86
2023/12/07 00:05:51;;;;;;;20.57;14.43;;;2.80;99.90;;;;;;4976685;28;20048;-87
2023/12/07 00:08:17;;;;;;;19.60;13.30;;;2.80;99.90;;;;;;4994145;28;20145;-85
2023/12/07 00:10:42;;;;;;;18.33;14.00;;;2.80;99.90;;;;;;4990410;28;20046;-86
2023/12/07 00:13:08;;;;;;;18.70;13.73;;;2.70;99.90;;;;;;4957693;28;20046;-85
2023/12/07 00:15:34;;;;;;;19.70;14.10;;;2.70;99.90;;;;;;4977157;28;20546;-85
2023/12/07 00:18:00;;;;;;;15.63;13.50;;;2.70;99.90;;;;;;4976319;28;20046;-86
2023/12/07 00:20:26;;;;;;;24.67;14.67;;;2.70;99.90;;;;;;4991165;28;20408;-87
2023/12/07 00:22:52;;;;;;;19.83;14.07;;;2.70;99.90;;;;;;4992637;28;20046;-85
2023/12/07 00:25:17;;;;;;;18.43;13.37;;;2.70;99.90;;;;;;4991872;28;20364;-85
2023/12/07 00:27:43;;;;;;;19.77;13.67;;;2.70;99.90;;;;;;4974484;28;20069;-86
2023/12/07 00:30:09;;;;;;;18.73;14.30;;;2.70;99.90;;;;;;4974567;28;20038;-86
2023/12/07 00:32:35;;;;;;;17.37;13.43;;;2.70;99.90;;;;;;4990976;28;20081;-86
2023/12/07 00:35:01;;;;;;;18.03;13.63;;;2.70;99.90;;;;;;4959768;28;20101;-86
2023/12/07 00:37:27;;;;;;;18.00;13.23;;;2.80;99.90;;;;;;4982282;28;20045;-86
2023/12/07 00:39:52;;;;;;;20.50;13.37;;;2.70;99.90;;;;;;4954790;28;20125;-86
2023/12/07 00:42:18;;;;;;;18.07;13.63;;;2.70;99.90;;;;;;4991152;28;20141;-87
2023/12/07 00:44:44;;;;;;;18.40;13.17;;;2.70;99.90;;;;;;4961031;28;20046;-85
2023/12/07 00:47:10;;;;;;;19.07;13.63;;;2.70;99.90;;;;;;4960021;28;20039;-85
2023/12/07 00:49:40;;;;;;;15.63;12.27;;;2.70;99.90;;;;;;4974227;28;20450;-88
2023/12/07 00:52:06;;;;;;;17.80;13.00;;;2.70;99.90;;;;;;4971393;28;20051;-87
2023/12/07 00:54:33;;;;;;;17.30;13.20;;;2.70;99.90;;;;;;4989337;28;20720;-86
2023/12/07 00:56:58;;;;;;;18.73;12.73;;;2.70;99.90;;;;;;4991053;28;20035;-86
2023/12/07 00:59:24;;;;;;;16.43;11.90;;;2.70;99.90;;;;;;4939307;28;20045;-85
2023/12/07 01:01:50;;;;;;;16.57;12.17;;;2.70;99.90;;;;;;4975639;28;20042;-86
2023/12/07 01:04:17;;;;;;;18.30;12.47;;;2.70;99.90;;;;;;4958182;28;20470;-85
2023/12/07 01:06:43;;;;;;;16.73;12.07;;;2.70;99.90;;;;;;4984851;28;20042;-88
2023/12/07 01:09:13;;;;;;;17.27;12.30;;;2.70;99.90;;;;;;4973740;28;20034;-87
2023/12/07 01:11:40;;;;;;;16.57;12.53;;;2.70;99.90;;;;;;4976377;28;20066;-86
2023/12/07 01:14:06;;;;;;;17.60;12.73;;;2.80;99.90;;;;;;4973419;28;20062;-86
2023/12/07 01:16:32;;;;;;;17.40;12.60;;;2.70;99.90;;;;;;4957590;28;20131;-86
2023/12/07 01:18:57;;;;;;;16.53;11.43;;;2.80;99.90;;;;;;4950085;28;20511;-84
2023/12/07 01:21:23;;;;;;;15.33;12.10;;;2.70;99.90;;;;;;4954566;28;20046;-85
2023/12/07 01:23:49;;;;;;;17.10;12.33;;;2.70;99.90;;;;;;4962931;28;20045;-89
2023/12/07 01:26:15;;;;;;;14.17;11.60;;;2.70;99.90;;;;;;4983065;28;20046;-86
2023/12/07 01:28:40;;;;;;;18.03;12.23;;;2.70;99.90;;;;;;4955108;28;20041;-85
2023/12/07 01:31:06;;;;;;;13.73;11.57;;;2.70;99.90;;;;;;4974392;28;20041;-86
2023/12/07 01:33:32;;;;;;;14.80;12.07;;;2.70;99.90;;;;;;4972947;28;20038;-85
2023/12/07 01:35:58;;;;;;;15.27;11.40;;;2.70;99.90;;;;;;4971931;28;20569;-84
2023/12/07 01:38:23;;;;;;;15.80;11.93;;;2.70;99.90;;;;;;4974099;28;20053;-85
2023/12/07 01:40:49;;;;;;;14.27;11.43;;;2.70;99.90;;;;;;4975109;28;20398;-85
2023/12/07 01:43:15;;;;;;;14.60;11.83;;;2.70;99.90;;;;;;4972931;28;20054;-86
2023/12/07 01:45:41;;;;;;;13.90;11.17;;;2.70;99.90;;;;;;4972220;28;20471;-87
2023/12/07 01:48:07;;;;;;;16.30;11.73;;;2.70;99.90;;;;;;4974099;28;20049;-84
2023/12/07 01:50:33;;;;;;;12.63;10.80;;;2.70;99.90;;;;;;4977094;28;20038;-84
2023/12/07 01:53:02;;;;;;;15.93;11.67;;;2.70;99.90;;;;;;4973529;28;20104;-85
2023/12/07 01:55:29;;;;;;;14.63;11.20;;;2.70;99.90;;;;;;4988560;28;20048;-86
2023/12/07 01:57:55;;;;;;;15.80;10.87;;;2.70;99.90;;;;;;4959491;28;20048;-85
2023/12/07 02:00:21;;;;;;;14.83;11.47;;;2.80;99.90;;;;;;4954932;28;20053;-84
2023/12/07 02:02:47;;;;;;;14.30;10.90;;;2.80;99.90;;;;;;4956653;28;20411;-84
2023/12/07 02:05:14;;;;;;;15.40;11.30;;;2.90;99.90;;;;;;4972526;28;20058;-87
2023/12/07 02:07:43;;;;;;;13.60;11.30;;;2.80;99.90;;;;;;4972495;28;20030;-85
2023/12/07 02:10:13;;;;;;;13.23;10.90;;;2.90;99.90;;;;;;4990230;28;20041;-85
2023/12/07 02:12:39;;;;;;;15.93;12.00;;;2.90;99.90;;;;;;4988877;28;20129;-85
2023/12/07 02:15:07;;;;;;;15.43;11.80;;;2.90;99.90;;;;;;4972311;28;20053;-84
2023/12/07 02:17:50;;;;;;;15.73;11.63;;;2.80;99.90;;;;;;4971738;28;20038;-85
2023/12/07 02:20:29;;;;;;;15.17;11.00;;;2.80;99.90;;;;;;4989797;28;20050;-85
2023/12/07 02:23:00;;;;;;;16.43;11.90;;;2.80;99.90;;;;;;4960773;28;20042;-84
2023/12/07 02:25:39;;;;;;;15.77;11.83;;;2.80;99.90;;;;;;4986821;28;20588;-84
2023/12/07 02:28:05;;;;;;;15.57;11.57;;;2.80;99.90;;;;;;4975147;28;20137;-84
2023/12/07 02:30:30;;;;;;;19.73;11.80;;;2.80;99.90;;;;;;4971455;28;20125;-84
2023/12/07 02:32:56;;;;;;;18.10;11.80;;;2.80;99.90;;;;;;4955799;28;20034;-85
2023/12/07 02:35:22;;;;;;;14.93;11.10;;;2.90;99.90;;;;;;4987737;28;20104;-85
2023/12/07 02:37:50;;;;;;;15.47;11.57;;;2.80;99.90;;;;;;4959593;28;20050;-85
2023/12/07 02:40:20;;;;;;;15.17;11.97;;;2.80;99.90;;;;;;4971186;28;20088;-85
2023/12/07 02:42:46;;;;;;;14.67;11.23;;;2.80;99.90;;;;;;4984299;28;20561;-85
2023/12/07 02:45:13;;;;;;;16.00;12.07;;;2.70;99.90;;;;;;4989154;28;20105;-85
2023/12/07 02:47:39;;;;;;;17.33;12.50;;;2.70;99.90;;;;;;4958396;28;20066;-85
2023/12/07 02:50:06;;;;;;;16.03;12.20;;;2.70;99.90;;;;;;4958571;28;20097;-84
2023/12/07 02:52:33;;;;;;;16.13;11.83;;;2.70;99.90;;;;;;4958293;28;20034;-85
2023/12/07 02:54:59;;;;;;;15.27;12.20;;;2.70;99.90;;;;;;4958310;28;20122;-84
2023/12/07 02:57:24;;;;;;;17.63;11.33;;;2.70;99.90;;;;;;4952836;28;20140;-86
2023/12/07 02:59:50;;;;;;;16.43;11.93;;;2.70;99.90;;;;;;4987682;28;20069;-85
2023/12/07 03:02:16;;;;;;;16.63;11.30;;;2.60;99.90;;;;;;4973862;28;20367;-86
2023/12/07 03:04:41;;;;;;;17.80;12.33;;;2.70;99.90;;;;;;4956222;28;20044;-87
2023/12/07 03:07:07;;;;;;;19.97;12.87;;;2.70;99.90;;;;;;4941552;28;20475;-86
2023/12/07 03:09:33;;;;;;;17.20;12.53;;;2.70;99.90;;;;;;4970053;28;20076;-87
2023/12/07 03:11:59;;;;;;;18.57;13.47;;;2.70;99.90;;;;;;4967710;28;20055;-87
2023/12/07 03:14:24;;;;;;;17.50;12.57;;;2.70;99.90;;;;;;4969714;28;20077;-85
2023/12/07 03:16:50;;;;;;;18.30;13.13;;;2.70;99.90;;;;;;4971384;28;20042;-85
2023/12/07 03:19:16;;;;;;;17.67;12.47;;;2.70;99.90;;;;;;4976913;28;20484;-85
2023/12/07 03:21:45;;;;;;;16.00;12.20;;;2.70;99.90;;;;;;4971102;28;20042;-84
2023/12/07 03:24:11;;;;;;;16.50;12.27;;;2.70;99.90;;;;;;4986113;28;20049;-84
2023/12/07 03:26:39;;;;;;;17.23;12.90;;;2.60;99.90;;;;;;4977096;28;20419;-84
2023/12/07 03:29:05;;;;;;;19.23;12.83;;;2.70;99.90;;;;;;4974192;28;20035;-85
2023/12/07 03:31:31;;;;;;;19.97;14.03;;;2.60;99.90;;;;;;4990489;28;20100;-85
2023/12/07 03:33:58;;;;;;;19.53;13.17;;;2.60;99.90;;;;;;4970083;28;20500;-85
2023/12/07 03:36:23;;;;;;;18.70;13.60;;;2.60;99.90;;;;;;4971503;28;20122;-85
2023/12/07 03:38:49;;;;;;;19.20;13.47;;;2.50;99.90;;;;;;4955203;28;20054;-84
2023/12/07 03:41:15;;;;;;;19.70;13.80;;;2.50;99.90;;;;;;4971399;28;20101;-84
2023/12/07 03:43:41;;;;;;;19.27;14.57;;;2.40;99.90;;;;;;4957068;28;20436;-85
2023/12/07 03:46:08;;;;;;;21.50;14.40;;;2.40;99.90;;;;;;4970368;28;20050;-85
2023/12/07 03:48:34;;;;;;;21.47;13.83;;;2.40;99.90;;;;;;4984612;28;20113;-85
2023/12/07 03:51:00;;;;;;;20.77;14.87;;;2.40;99.90;;;;;;4973706;28;20491;-85
2023/12/07 03:53:26;;;;;;;19.50;14.07;;;2.40;99.90;;;;;;4989799;28;20556;-85
2023/12/07 03:55:52;;;;;;;21.33;14.87;;;2.40;99.90;;;;;;4988247;28;20145;-85
2023/12/07 03:58:18;;;;;;;20.37;14.07;;;2.40;99.90;;;;;;4983796;28;20038;-84
2023/12/07 04:00:44;;;;;;;22.93;15.53;;;2.40;99.90;;;;;;4956450;28;20048;-84
2023/12/07 04:03:10;;;;;;;22.13;15.17;;;2.40;99.90;;;;;;4954158;28;20046;-84
2023/12/07 04:05:36;;;;;;;25.67;16.17;;;2.40;99.90;;;;;;4988932;28;20431;-84
2023/12/07 04:08:01;;;;;;;23.20;17.07;;;2.40;99.90;;;;;;4987798;28;20447;-85
2023/12/07 04:10:27;;;;;;;25.90;17.10;;;2.40;99.90;;;;;;4973252;28;20042;-84
2023/12/07 04:12:53;;;;;;;22.03;15.43;;;2.30;99.90;;;;;;4958582;28;20038;-85
2023/12/07 04:15:19;;;;;;;23.73;15.50;;;2.20;99.90;;;;;;4991765;28;20089;-85
2023/12/07 04:17:46;;;;;;;22.93;15.77;;;2.20;99.90;;;;;;4973175;28;20448;-84
2023/12/07 04:20:13;;;;;;;22.03;14.73;;;2.20;99.90;;;;;;4961628;28;20117;-85
2023/12/07 04:22:39;;;;;;;19.77;14.77;;;2.20;99.90;;;;;;4978443;28;20120;-84
2023/12/07 04:25:06;;;;;;;25.40;16.00;;;2.10;99.90;;;;;;4970817;28;20191;-85
2023/12/07 04:27:33;;;;;;;25.77;17.00;;;2.10;99.90;;;;;;4959865;28;20057;-85
2023/12/07 04:29:59;;;;;;;23.30;16.23;;;2.10;99.90;;;;;;4979228;28;20551;-84
2023/12/07 04:32:25;;;;;;;20.90;15.30;;;2.10;99.90;;;;;;4974157;28;20181;-85
2023/12/07 04:34:52;;;;;;;22.47;15.17;;;2.00;99.90;;;;;;4957124;28;20543;-85
2023/12/07 04:37:18;;;;;;;22.10;15.30;;;2.00;99.90;;;;;;4974222;28;20076;-85
2023/12/07 04:39:43;;;;;;;23.13;15.37;;;1.90;99.90;;;;;;4974964;28;20486;-85
2023/12/07 04:42:09;;;;;;;22.53;15.33;;;1.90;99.90;;;;;;4987558;28;20033;-85
2023/12/07 04:44:35;;;;;;;23.77;16.80;;;1.90;99.90;;;;;;4959501;28;20492;-86
2023/12/07 04:47:01;;;;;;;24.53;16.33;;;1.80;99.90;;;;;;4975212;28;20149;-85
2023/12/07 04:49:27;;;;;;;21.97;15.63;;;1.80;99.90;;;;;;4957838;28;20054;-85
2023/12/07 04:51:52;;;;;;;30.27;19.43;;;1.80;99.90;;;;;;4989622;28;20034;-85
2023/12/07 04:54:19;;;;;;;23.77;16.53;;;1.70;99.90;;;;;;4959149;28;20053;-85
2023/12/07 04:56:45;;;;;;;26.67;17.43;;;1.70;99.90;;;;;;4975314;28;20320;-85
2023/12/07 04:59:10;;;;;;;25.10;15.47;;;1.70;99.90;;;;;;4975953;28;20097;-85
2023/12/07 05:01:36;;;;;;;26.57;17.97;;;1.70;99.90;;;;;;4974336;28;20042;-85
2023/12/07 05:04:03;;;;;;;25.97;16.90;;;1.70;99.90;;;;;;4971548;28;20035;-85
2023/12/07 05:06:30;;;;;;;24.20;17.50;;;1.60;99.90;;;;;;4956469;28;20589;-85
2023/12/07 05:08:56;;;;;;;26.17;16.60;;;1.60;99.90;;;;;;4975172;28;20034;-83
2023/12/07 05:11:22;;;;;;;28.83;17.87;;;1.60;99.90;;;;;;4989592;28;20139;-83
2023/12/07 05:13:48;;;;;;;26.23;16.93;;;1.60;99.90;;;;;;4976433;28;20042;-82
2023/12/07 05:16:14;;;;;;;29.00;17.73;;;1.60;99.90;;;;;;4990676;28;20495;-82
2023/12/07 05:18:40;;;;;;;29.23;17.47;;;1.60;99.90;;;;;;4975496;28;20111;-82
2023/12/07 05:21:06;;;;;;;24.80;16.73;;;1.60;99.90;;;;;;4974435;28;20054;-82
2023/12/07 05:23:32;;;;;;;32.57;20.40;;;1.60;99.90;;;;;;4989359;28;20046;-82
2023/12/07 05:25:58;;;;;;;29.03;18.47;;;1.60;99.90;;;;;;4957185;28;20049;-83
2023/12/07 05:28:23;;;;;;;29.10;17.80;;;1.60;99.90;;;;;;4990743;28;20392;-83
2023/12/07 05:30:49;;;;;;;30.90;18.60;;;1.60;99.90;;;;;;4991120;28;20126;-83
2023/12/07 05:33:15;;;;;;;32.23;19.97;;;1.60;99.90;;;;;;4974444;28;20072;-83
2023/12/07 05:35:41;;;;;;;30.27;17.47;;;1.60;99.90;;;;;;4991306;28;20041;-83
2023/12/07 05:38:07;;;;;;;28.20;18.30;;;1.60;99.90;;;;;;4958367;28;20077;-83
2023/12/07 05:40:33;;;;;;;34.50;20.67;;;1.60;99.90;;;;;;4989767;28;20479;-83
2023/12/07 05:42:59;;;;;;;25.03;17.27;;;1.60;99.90;;;;;;4978116;28;20042;-83
2023/12/07 05:45:26;;;;;;;32.57;19.33;;;1.50;99.90;;;;;;4970986;28;20077;-83
2023/12/07 05:47:52;;;;;;;31.17;19.23;;;1.50;99.90;;;;;;4985892;28;20049;-83
2023/12/07 05:50:18;;;;;;;33.30;19.07;;;1.50;99.90;;;;;;4958033;28;20052;-83
2023/12/07 05:52:43;;;;;;;29.87;18.53;;;1.50;99.90;;;;;;4972170;28;20034;-83
2023/12/07 05:55:09;;;;;;;28.70;18.57;;;1.50;99.90;;;;;;4955688;28;20117;-83
2023/12/07 05:57:35;;;;;;;27.40;18.23;;;1.40;99.90;;;;;;4988153;28;20125;-83
2023/12/07 06:00:01;;;;;;;30.47;18.63;;;1.40;99.90;;;;;;4955016;28;20121;-83
2023/12/07 06:02:27;;;;;;;36.97;21.57;;;1.40;99.90;;;;;;4990051;28;20081;-83
2023/12/07 06:04:53;;;;;;;29.70;19.03;;;1.40;99.90;;;;;;4989845;28;21016;-83
2023/12/07 06:07:19;;;;;;;32.47;20.60;;;1.40;99.90;;;;;;4991171;28;20041;-83
2023/12/07 06:09:44;;;;;;;31.30;19.10;;;1.40;99.90;;;;;;4973550;28;20451;-83
2023/12/07 06:12:10;;;;;;;29.50;19.17;;;1.30;99.90;;;;;;4990778;28;20050;-84
2023/12/07 06:14:37;;;;;;;30.93;18.83;;;1.30;99.90;;;;;;4973123;28;20454;-83
2023/12/07 06:17:02;;;;;;;31.03;19.67;;;1.30;99.90;;;;;;4988245;28;20050;-82
2023/12/07 06:19:28;;;;;;;33.50;20.20;;;1.30;99.90;;;;;;4989040;28;20112;-83
2023/12/07 06:21:54;;;;;;;31.37;19.97;;;1.30;99.90;;;;;;4986189;28;20464;-83
2023/12/07 06:24:23;;;;;;;30.33;18.83;;;1.20;99.90;;;;;;4991541;28;20438;-83
2023/12/07 06:26:48;;;;;;;29.17;19.37;;;1.20;99.90;;;;;;4989169;28;20064;-83
2023/12/07 06:29:14;;;;;;;29.67;19.63;;;1.20;99.90;;;;;;4972932;28;20047;-83
2023/12/07 06:31:43;;;;;;;31.23;19.87;;;1.20;99.90;;;;;;4969692;28;20149;-83
2023/12/07 06:34:09;;;;;;;33.10;20.90;;;1.10;99.90;;;;;;4990000;28;20073;-83
2023/12/07 06:36:35;;;;;;;33.97;20.73;;;1.10;99.90;;;;;;4977444;28;20070;-82
2023/12/07 06:39:03;;;;;;;32.50;20.47;;;1.10;99.90;;;;;;4990795;28;20050;-83
2023/12/07 06:41:28;;;;;;;30.17;19.63;;;1.10;99.90;;;;;;4973621;28;20073;-83
2023/12/07 06:43:54;;;;;;;37.57;22.30;;;1.10;99.90;;;;;;4964534;28;20078;-82
2023/12/07 06:46:20;;;;;;;30.23;19.60;;;1.10;99.90;;;;;;4966492;28;20041;-84
2023/12/07 06:48:46;;;;;;;30.30;20.33;;;1.00;99.90;;;;;;4964330;28;20126;-83
2023/12/07 06:51:15;;;;;;;33.73;21.47;;;1.00;99.90;;;;;;4971430;28;20048;-83
2023/12/07 06:53:41;;;;;;;37.03;22.50;;;1.00;99.90;;;;;;4986964;28;20845;-82
2023/12/07 06:56:08;;;;;;;32.17;20.70;;;1.00;99.90;;;;;;4972419;28;20120;-82
2023/12/07 06:58:34;;;;;;;31.30;20.83;;;1.00;99.90;;;;;;4990415;28;20073;-82
2023/12/07 07:01:00;;;;;;;34.10;20.83;;;1.00;99.90;;;;;;4987468;28;20132;-82
2023/12/07 07:03:27;;;;;;;30.57;20.13;;;1.00;99.90;;;;;;4988269;28;20050;-82
2023/12/07 07:05:54;;;;;;;35.00;21.70;;;1.00;99.90;;;;;;4987928;28;20046;-82
2023/12/07 07:08:20;;;;;;;36.67;23.30;;;1.00;99.90;;;;;;4971727;28;20053;-83
2023/12/07 07:10:49;;;;;;;35.00;22.60;;;1.00;99.90;;;;;;4962112;28;20456;-83
2023/12/07 07:13:16;;;;;;;38.53;22.73;;;1.00;99.90;;;;;;4984334;28;20113;-83
2023/12/07 07:15:45;;;;;;;43.37;26.40;;;0.90;99.90;;;;;;4980100;28;20054;-82
2023/12/07 07:18:11;;;;;;;39.60;25.90;;;0.80;99.90;;;;;;4999271;28;20531;-82
2023/12/07 07:20:37;;;;;;;35.77;24.63;;;0.80;99.90;;;;;;4975215;28;20173;-83
2023/12/07 07:23:03;;;;;;;43.67;27.00;;;0.80;99.90;;;;;;4968321;28;20510;-82
2023/12/07 07:25:29;;;;;;;43.43;26.30;;;0.80;99.90;;;;;;4982551;28;20119;-82
2023/12/07 07:27:55;;;;;;;34.30;23.17;;;0.90;99.90;;;;;;4984064;28;20495;-82
2023/12/07 07:30:23;;;;;;;35.97;24.40;;;0.80;99.90;;;;;;4982089;28;20046;-83
2023/12/07 07:32:50;;;;;;;37.50;24.63;;;0.90;99.90;;;;;;4957139;28;20050;-82
2023/12/07 07:35:15;;;;;;;40.50;26.23;;;0.80;99.90;;;;;;5000408;28;20123;-83
2023/12/07 07:37:41;;;;;;;40.77;25.80;;;0.90;99.90;;;;;;4992140;28;20050;-82
2023/12/07 07:40:11;;;;;;;42.53;25.10;;;0.80;99.90;;;;;;4985461;28;20039;-83
2023/12/07 07:42:40;;;;;;;45.47;26.17;;;0.80;99.90;;;;;;4993139;28;20380;-84
2023/12/07 07:45:07;;;;;;;38.37;24.23;;;0.90;99.90;;;;;;4979738;28;20057;-82
2023/12/07 07:47:33;;;;;;;41.20;25.23;;;0.90;99.90;;;;;;4974719;28;20499;-83
2023/12/07 07:50:04;;;;;;;40.93;26.17;;;0.90;99.90;;;;;;4973965;28;20078;-83
2023/12/07 07:52:30;;;;;;;40.83;26.43;;;0.90;99.90;;;;;;4976214;28;20093;-82
2023/12/07 07:54:56;;;;;;;38.97;26.17;;;0.90;99.90;;;;;;4955651;28;20054;-82
2023/12/07 07:57:22;;;;;;;38.20;26.13;;;0.90;99.90;;;;;;4973656;28;20407;-82
2023/12/07 07:59:47;;;;;;;37.93;27.00;;;0.90;99.90;;;;;;4969520;28;20053;-82
2023/12/07 08:02:13;;;;;;;43.27;27.20;;;1.00;99.90;;;;;;4969286;28;20050;-82
2023/12/07 08:04:39;;;;;;;47.03;29.93;;;1.00;99.90;;;;;;4986146;28;20106;-82
2023/12/07 08:07:05;;;;;;;38.97;25.70;;;1.00;99.90;;;;;;4953474;28;20037;-82
2023/12/07 08:09:30;;;;;;;41.73;27.10;;;0.90;99.90;;;;;;4983022;28;20399;-82
2023/12/07 08:11:56;;;;;;;43.87;28.40;;;1.00;99.90;;;;;;4969373;28;20089;-82
2023/12/07 08:14:22;;;;;;;42.47;28.73;;;0.90;99.90;;;;;;4971974;28;20041;-82
2023/12/07 08:16:47;;;;;;;42.67;28.60;;;0.90;99.90;;;;;;4969663;28;20037;-82
2023/12/07 08:19:13;;;;;;;44.07;28.67;;;0.90;99.90;;;;;;4964654;28;20058;-82
2023/12/07 08:21:39;;;;;;;41.17;28.17;;;0.90;99.90;;;;;;4981072;28;20046;-82
2023/12/07 08:24:08;;;;;;;42.23;27.33;;;0.90;99.90;;;;;;4984869;28;20038;-82
2023/12/07 08:26:34;;;;;;;45.70;28.17;;;1.00;99.90;;;;;;4948621;28;20038;-82
2023/12/07 08:28:59;;;;;;;44.90;29.17;;;1.00;99.90;;;;;;4975444;28;20450;-82
2023/12/07 08:31:25;;;;;;;41.50;28.13;;;1.10;99.90;;;;;;4959931;28;20518;-83
2023/12/07 08:33:51;;;;;;;41.13;28.07;;;1.00;99.90;;;;;;4985772;28;20110;-82
2023/12/07 08:36:17;;;;;;;38.67;25.63;;;1.10;99.90;;;;;;4983498;28;20551;-82
2023/12/07 08:38:43;;;;;;;40.97;26.63;;;1.10;99.90;;;;;;4968551;28;20035;-82
2023/12/07 08:41:09;;;;;;;43.73;27.53;;;1.10;99.90;;;;;;4972982;28;20161;-83
2023/12/07 08:43:34;;;;;;;42.07;27.07;;;1.10;99.90;;;;;;4974413;28;20038;-82
2023/12/07 08:46:00;;;;;;;37.83;25.17;;;1.10;99.90;;;;;;4982321;28;20042;-82
2023/12/07 08:48:26;;;;;;;45.20;27.50;;;1.10;99.90;;;;;;4969174;28;20207;-83
2023/12/07 08:50:52;;;;;;;39.43;25.83;;;1.20;99.90;;;;;;4987082;28;20122;-82
2023/12/07 08:53:18;;;;;;;41.67;26.23;;;1.20;99.90;;;;;;4971641;28;20039;-82
2023/12/07 08:55:43;;;;;;;40.20;26.17;;;1.30;99.90;;;;;;4969254;28;20042;-82
2023/12/07 08:58:10;;;;;;;43.17;27.03;;;1.30;99.90;;;;;;4983655;28;20407;-83
2023/12/07 09:00:36;;;;;;;45.33;27.73;;;1.30;99.90;;;;;;4983454;28;20570;-82
2023/12/07 09:03:02;;;;;;;46.47;27.77;;;1.40;99.90;;;;;;4985310;28;20035;-82
2023/12/07 09:05:28;;;;;;;42.00;26.47;;;1.40;99.90;;;;;;4990446;28;20483;-82
2023/12/07 09:07:54;;;;;;;38.73;25.27;;;1.40;99.90;;;;;;4966659;28;20043;-82
2023/12/07 09:10:20;;;;;;;43.07;28.00;;;1.40;99.90;;;;;;4980255;28;20042;-82
2023/12/07 09:12:45;;;;;;;44.03;28.07;;;1.50;99.90;;;;;;4984235;28;20050;-82
2023/12/07 09:15:12;;;;;;;37.90;24.70;;;1.40;99.90;;;;;;4969601;28;20046;-83
2023/12/07 09:17:38;;;;;;;38.37;25.60;;;1.40;99.90;;;;;;4990650;28;20042;-83
2023/12/07 09:20:07;;;;;;;40.77;26.60;;;1.40;99.90;;;;;;4968104;28;20475;-83
2023/12/07 09:22:33;;;;;;;41.07;25.97;;;1.40;99.90;;;;;;4987698;28;20042;-83
2023/12/07 09:24:59;;;;;;;41.43;26.43;;;1.40;99.90;;;;;;4955406;28;20061;-84
2023/12/07 09:27:25;;;;;;;39.60;27.17;;;1.40;99.90;;;;;;4969875;28;20033;-83
2023/12/07 09:29:51;;;;;;;41.40;26.17;;;1.40;99.90;;;;;;4978713;28;20510;-83
2023/12/07 09:32:17;;;;;;;38.07;25.57;;;1.50;99.90;;;;;;4985631;28;20050;-83
2023/12/07 09:34:42;;;;;;;38.87;25.87;;;1.60;99.90;;;;;;4982601;28;20053;-83
2023/12/07 09:37:09;;;;;;;48.90;29.67;;;1.70;99.90;;;;;;4958854;28;20399;-83
2023/12/07 09:39:35;;;;;;;44.63;26.87;;;1.70;99.90;;;;;;4969614;28;20038;-82
2023/12/07 09:42:02;;;;;;;42.90;26.10;;;1.70;99.90;;;;;;4980148;28;20049;-83
2023/12/07 09:44:28;;;;;;;44.60;27.53;;;1.70;99.90;;;;;;4969507;28;20039;-83
2023/12/07 09:46:54;;;;;;;42.77;26.70;;;1.80;99.90;;;;;;4967808;28;20085;-83
2023/12/07 09:49:21;;;;;;;42.47;28.03;;;1.80;99.90;;;;;;4952549;28;20085;-83
2023/12/07 09:51:47;;;;;;;40.57;26.43;;;1.90;99.90;;;;;;4983975;28;20492;-83
2023/12/07 09:54:13;;;;;;;41.23;27.07;;;2.00;99.90;;;;;;4968179;28;20527;-83
2023/12/07 09:56:39;;;;;;;44.90;27.83;;;2.00;99.90;;;;;;4979298;28;20047;-83
2023/12/07 09:59:07;;;;;;;40.07;27.47;;;2.10;99.90;;;;;;4985108;28;20042;-83
2023/12/07 10:01:35;;;;;;;47.43;28.93;;;2.10;99.90;;;;;;4983941;28;20079;-83
2023/12/07 10:04:23;;;;;;;37.90;27.00;;;2.10;99.90;;;;;;4981399;28;20494;-83
2023/12/07 10:06:50;;;;;;;43.23;28.30;;;2.10;99.90;;;;;;4966095;28;20050;-83
2023/12/07 10:09:18;;;;;;;49.13;28.70;;;2.10;99.90;;;;;;4965643;28;20395;-83
2023/12/07 10:11:46;;;;;;;50.07;30.37;;;2.00;99.90;;;;;;4969504;28;20058;-83
2023/12/07 10:14:12;;;;;;;61.80;34.83;;;2.00;99.90;;;;;;4975635;28;20569;-83
2023/12/07 10:16:37;;;;;;;58.70;29.77;;;1.90;99.90;;;;;;4979976;28;20050;-83
2023/12/07 10:19:14;;;;;;;108.33;35.07;;;1.90;99.90;;;;;;4952858;28;20042;-83
2023/12/07 10:21:40;;;;;;;141.17;31.90;;;1.90;99.90;;;;;;4979063;28;20078;-83
2023/12/07 10:24:06;;;;;;;152.50;33.83;;;1.80;99.90;;;;;;4953690;28;20042;-83
2023/12/07 10:26:32;;;;;;;95.10;26.53;;;1.80;99.90;;;;;;4970830;28;20042;-84
2023/12/07 10:28:59;;;;;;;112.13;27.90;;;1.60;99.90;;;;;;4949403;28;20105;-83
2023/12/07 10:31:30;;;;;;;104.57;28.40;;;1.60;99.90;;;;;;4963796;28;20103;-84
2023/12/07 10:33:56;;;;;;;100.47;26.17;;;1.50;99.90;;;;;;4993322;28;20500;-83
2023/12/07 10:36:23;;;;;;;65.63;24.90;;;1.60;99.90;;;;;;4984080;28;20133;-83
2023/12/07 10:38:50;;;;;;;85.77;29.77;;;1.60;99.90;;;;;;4967333;28;20042;-83
2023/12/07 10:41:18;;;;;;;95.57;33.83;;;1.60;99.90;;;;;;5000742;28;20126;-83
2023/12/07 10:43:49;;;;;;;67.63;27.23;;;1.50;99.90;;;;;;4978636;28;20038;-83
2023/12/07 10:46:18;;;;;;;148.10;39.37;;;1.50;99.90;;;;;;4973919;28;20054;-83
2023/12/07 10:49:13;;;;;;;91.40;29.27;;;1.50;99.90;;;;;;4983671;28;20043;-83
2023/12/07 10:51:51;;;;;;;83.10;26.67;;;1.50;99.90;;;;;;4965867;28;20918;-84
2023/12/07 10:54:20;;;;;;;67.93;25.13;;;1.50;99.90;;;;;;4975144;28;20419;-83
2023/12/07 10:56:48;;;;;;;73.73;27.73;;;1.50;99.90;;;;;;4979395;28;20349;-83
2023/12/07 10:59:14;;;;;;;131.20;34.23;;;1.50;99.90;;;;;;4990399;28;20124;-83
2023/12/07 11:01:42;;;;;;;65.63;27.27;;;1.50;99.90;;;;;;4995441;28;20082;-83
2023/12/07 11:04:12;;;;;;;60.07;27.90;;;1.50;99.90;;;;;;4962467;28;20061;-83
2023/12/07 11:06:39;;;;;;;79.87;30.10;;;1.50;99.90;;;;;;4977166;28;20088;-83
2023/12/07 11:09:13;;;;;;;87.93;31.17;;;1.50;99.90;;;;;;4973422;28;20069;-83
2023/12/07 11:11:54;;;;;;;124.03;41.57;;;1.50;99.90;;;;;;4975669;28;20222;-83
2023/12/07 11:14:21;;;;;;;122.78;35.15;;;1.50;99.90;;;;;;4998450;28;20046;-83
2023/12/07 11:16:47;;;;;;;62.13;29.23;;;1.60;99.90;;;;;;4998090;28;20384;-83
2023/12/07 11:19:39;;;;;;;92.93;35.57;;;1.70;99.90;;;;;;4985639;28;20484;-83
2023/12/07 11:22:10;;;;;;;;;;;1.70;99.90;;;;;;4978583;28;20130;-83
2023/12/07 11:24:36;;;;;;;85.97;30.63;;;1.70;99.90;;;;;;5010476;28;19975;-84
2023/12/07 11:27:02;;;;;;;65.40;27.17;;;1.70;99.90;;;;;;4966469;28;20089;-83
2023/12/07 11:29:31;;;;;;;87.70;31.97;;;1.70;99.90;;;;;;4975571;28;20078;-83
2023/12/07 11:32:02;;;;;;;77.93;31.87;;;1.60;99.90;;;;;;4946752;28;20380;-83
2023/12/07 11:34:42;;;;;;;89.50;33.20;;;1.60;99.90;;;;;;4994633;28;20034;-83
2023/12/07 11:37:09;;;;;;;56.67;25.87;;;1.70;99.90;;;;;;4974559;28;20109;-82
2023/12/07 11:39:41;;;;;;;80.53;31.77;;;1.70;99.90;;;;;;4984636;28;20496;-83
2023/12/07 11:42:17;;;;;;;69.23;27.17;;;1.70;99.90;;;;;;4993471;28;20128;-83
2023/12/07 11:44:47;;;;;;;65.57;29.90;;;1.80;99.90;;;;;;4971623;28;20046;-83
2023/12/07 11:47:16;;;;;;;114.37;38.13;;;1.70;99.90;;;;;;4978427;28;20043;-84
2023/12/07 11:49:43;;;;;;;64.53;28.97;;;1.70;99.90;;;;;;4978933;28;20042;-84
2023/12/07 11:52:21;;;;;;;100.27;32.60;;;1.80;99.90;;;;;;4956780;28;20034;-85
2023/12/07 11:54:49;;;;;;;114.57;34.80;;;1.80;99.90;;;;;;4973824;28;20419;-84
2023/12/07 11:57:15;;;;;;;115.00;37.27;;;1.80;99.90;;;;;;4969782;28;20492;-83
2023/12/07 11:59:43;;;;;;;210.03;50.27;;;1.90;99.90;;;;;;4984977;28;20035;-84
2023/12/07 12:02:11;;;;;;;135.83;40.90;;;1.80;99.90;;;;;;5000893;28;20041;-83
2023/12/07 12:04:38;;;;;;;110.57;36.20;;;1.80;99.90;;;;;;4987342;28;20061;-84
2023/12/07 12:07:04;;;;;;;154.50;42.67;;;1.70;99.90;;;;;;4969384;28;20113;-84
2023/12/07 12:09:29;;;;;;;140.57;45.00;;;1.80;99.90;;;;;;4980744;28;20495;-83
2023/12/07 12:12:00;;;;;;;157.60;46.97;;;1.80;99.90;;;;;;4982474;28;20051;-83
2023/12/07 12:14:27;;;;;;;160.00;46.10;;;1.80;99.90;;;;;;4983999;28;20054;-83
2023/12/07 12:16:53;;;;;;;108.13;36.33;;;1.80;99.90;;;;;;4967685;28;20410;-83
2023/12/07 12:19:19;;;;;;;173.03;45.73;;;1.90;99.90;;;;;;4966944;28;20047;-83
2023/12/07 12:21:46;;;;;;;109.47;34.10;;;1.80;99.90;;;;;;4987360;28;20501;-84
2023/12/07 12:24:12;;;;;;;114.33;38.40;;;1.70;99.90;;;;;;4991671;28;20084;-84
2023/12/07 12:26:42;;;;;;;110.43;39.07;;;1.80;99.90;;;;;;4971174;28;20048;-84
2023/12/07 12:29:09;;;;;;;103.00;35.20;;;1.80;99.90;;;;;;4986958;28;20186;-84
2023/12/07 12:31:35;;;;;;;146.77;42.97;;;1.80;99.90;;;;;;4974251;28;20368;-84
2023/12/07 12:34:02;;;;;;;119.47;40.37;;;1.80;99.90;;;;;;4971148;28;20039;-85